Patton Hill, Indiana
Current Conditions -  °F | °C
As of 4:53 AM on Sunday 25 Jan 2015 (Local Time) from KBMG Reporting Station
Overcast Overcast  
Wind Chill: 31°   Ceiling: 11000
Heat Index: 35°   Visibility: 10mi
Dew Point: 30°   Wind: 5mph
Humidity: 82%   Direction: 170°S
Pressure: 29.68"   Gusts: NA
Location:  38.8737°N, 86.4563°W
Report Text: KBMG 250953Z 17004KT 10SM OVC110 02/M01 A2968 RMK AO2 SLP054 T00171011 $
Loading
Personal Weather Stations






























Interactive Weather Map New forecast layout! Learn more

10-Day Weather Forecast

Advertisements
Track Severe Weather on mobile